Nearby METAR Reports

 

KEQY - Monroe, North Carolina, USA
Distance from station: S 11mi, 18km
Updated: Thu, 08/21/2014 7:53am EDT
Clear
Clear
 Wind from N
Wind: N 3 mph , 6 km/h
Temperature: 73°F , 23°C
Dew Point: 68°F , 20°C
Humidity: 83%
Barometer: 30.08 inHg , 1018.6 hPa
Clouds: Clear
Visibility: 10 miles , 16 km
2014/08/21 11:53 KEQY 211153Z AUTO 36003KT 10SM CLR 23/20 A3008 RMK AO2 SLP185 T02330200 10244 20211 53016
KJQF - Concord Reg Arpt, North Carolina, USA
Distance from station: NNW 16mi, 25km
Updated: Thu, 08/21/2014 7:59am EDT
Clear
Clear
 Wind from calm
Wind: Calm
Temperature: 72°F , 22°C
Dew Point: 66°F , 19°C
Humidity: 83%
Barometer: 30.13 inHg , 1020.3 hPa
Clouds: Clear
Visibility: 10 miles , 16 km
2014/08/21 11:59 KJQF 211159Z 00000KT 10SM CLR 22/19 A3013
 
KCLT - Charlotte, North Carolina, USA
Distance from station: W 20mi, 33km
Updated: Thu, 08/21/2014 7:52am EDT
Partly cloudy
Partly cloudy
 Wind from NNW
Wind: NNW 3 mph , 6 km/h
Temperature: 72°F , 22°C
Dew Point: 66°F , 19°C
Humidity: 83%
Barometer: 30.10 inHg , 1019.3 hPa
Clouds: Partly cloudy
Visibility: 10 miles , 16 km
Cloud details: Partly cloudy 25000 ft
2014/08/21 11:52 KCLT 211152Z 33003KT 10SM SCT250 22/19 A3010 RMK AO2 SLP184 T02220189 10239 20194 53018
KUZA - Rock Hill, South Carolina, USA
Distance from station: WSW 29mi, 47km
Updated: Thu, 08/21/2014 7:54am EDT
Clear
Clear
 Wind from calm
Wind: Calm
Temperature: 72°F , 22°C
Dew Point: 70°F , 21°C
Humidity: 94%
Barometer: 30.10 inHg , 1019.3 hPa
Clouds: Clear
Visibility: 9 miles , 14 km
2014/08/21 11:54 KUZA 211154Z AUTO 00000KT 9SM CLR 22/21 A3010 RMK AO2 SLP180 T02220206 10239 20200 53018
 
KVUJ - Albemarle Stanly, North Carolina, USA
Distance from station: NE 30mi, 48km
Updated: Thu, 08/21/2014 7:55am EDT
Clear
Clear
 Wind from calm
Wind: Calm
Temperature: 72°F , 22°C
Dew Point: 70°F , 21°C
Humidity: 94%
Barometer: 30.13 inHg , 1020.3 hPa
Clouds: Clear
Visibility: 10 miles , 16 km
2014/08/21 11:55 KVUJ 211155Z AUTO 00000KT 10SM CLR 22/21 A3013 RMK AO2 T02240213 10231 20205
KAFP - Wadesboro/Anson, North Carolina, USA
Distance from station: ESE 31mi, 50km
Updated: Thu, 08/21/2014 7:55am EDT
Mist, Clear
Mist, Clear
 Wind from calm
Wind: Calm
Temperature: 73°F , 23°C
Dew Point: 70°F , 21°C
Humidity: 89%
Barometer: 30.07 inHg , 1018.3 hPa
Summary: Mist
Clouds: Clear
Visibility: 5 miles , 8 km
2014/08/21 11:55 KAFP 211155Z AUTO 00000KT 5SM BR CLR 23/21 A3007 RMK AO2 T02310212 10233 20207
 
KAKH - Gastonia, North Carolina, USA
Distance from station: W 31mi, 51km
Updated: Thu, 08/21/2014 7:54am EDT
Clear
Clear
 Wind from calm
Wind: Calm
Temperature: 70°F , 21°C
Dew Point: 66°F , 19°C
Humidity: 88%
Barometer: 30.10 inHg , 1019.3 hPa
Clouds: Clear
Visibility: 10 miles , 16 km
2014/08/21 11:54 KAKH 211154Z AUTO 00000KT 10SM CLR 21/19 A3010 RMK AO2 SLP187 60000 70009 T02110194 10233 20194 53019
KRUQ - Salisbury Rowan, North Carolina, USA
Distance from station: N 33mi, 53km
Updated: Thu, 08/21/2014 7:55am EDT
Clear
Clear
 Wind from calm
Wind: Calm
Temperature: 70°F , 21°C
Dew Point: 68°F , 20°C
Humidity: 94%
Barometer: 30.10 inHg , 1019.3 hPa
Clouds: Clear
Visibility: 7 miles , 11 km
2014/08/21 11:55 KRUQ 211155Z AUTO 00000KT 7SM CLR 21/20 A3010 RMK AO2 T02100204 10223 20189
 
KLKR - Lancaster, South Carolina, USA
Distance from station: SSW 35mi, 57km
Updated: Thu, 08/21/2014 7:55am EDT
Light rain, Overcast
Light rain, Overcast
 Wind from calm
Wind: Calm
Temperature: 72°F , 22°C
Dew Point: 72°F , 22°C
Humidity: 100%
Barometer: 30.09 inHg , 1019 hPa
Summary: Light rain
Clouds: Overcast
Visibility: 1/4 mile , 2 km
Cloud details: Overcast 200 ft
2014/08/21 11:55 KLKR 211155Z AUTO 00000KT 1/4SM -RA VV002 22/22 A3009 RMK AO2
KIPJ - Lincolnton, North Carolina, USA
Distance from station: WNW 39mi, 62km
Updated: Thu, 08/21/2014 7:55am EDT
Clear
Clear
 Wind from calm
Wind: Calm
Temperature: 68°F , 20°C
Dew Point: 64°F , 18°C
Humidity: 88%
Barometer: 30.10 inHg , 1019.3 hPa
Clouds: Clear
Visibility: 10 miles , 16 km
2014/08/21 11:55 KIPJ 211155Z AUTO 00000KT 10SM CLR 20/18 A3010 RMK AO2 T01950180 10225 20183
 
KDCM - Chester Catawba, South Carolina, USA
Distance from station: SW 44mi, 71km
Updated: Thu, 08/21/2014 7:55am EDT
Clear
Clear
 Wind from NW
Wind: NW 6 mph , 9 km/h
Temperature: 75°F , 24°C
Dew Point: 64°F , 18°C
Humidity: 69%
Barometer: 30.10 inHg , 1019.3 hPa
Clouds: Clear
Visibility: 7 miles , 11 km
2014/08/21 11:55 KDCM 211155Z AUTO 31005KT 7SM CLR 24/18 A3010 RMK AO2 LTG DSNT SE
KSVH - Statesville, North Carolina, USA
Distance from station: NNW 44mi, 71km
Updated: Thu, 08/21/2014 7:55am EDT
Clear
Clear
 Wind from calm
Wind: Calm
Temperature: 68°F , 20°C
Dew Point: 64°F , 18°C
Humidity: 88%
Barometer: 30.10 inHg , 1019.3 hPa
Clouds: Clear
Visibility: 10 miles , 16 km
2014/08/21 11:55 KSVH 211155Z AUTO 00000KT 10SM CLR 20/18 A3010 RMK AO2 T02030183 10229 20189
 
KEXX - Davidson Cty Ap, North Carolina, USA
Distance from station: NNE 45mi, 72km
Updated: Thu, 08/21/2014 7:55am EDT
Clear
Clear
 Wind from calm
Wind: Calm
Temperature: 72°F , 22°C
Dew Point: 72°F , 22°C
Humidity: 100%
Barometer: 30.10 inHg , 1019.3 hPa
Clouds: Clear
Visibility: 10 miles , 16 km
2014/08/21 11:55 KEXX 211155Z AUTO 00000KT 10SM CLR 22/22 A3010 RMK AO2 T02220222 10222 20196
KCQW - Cheraw, South Carolina, USA
Distance from station: SE 49mi, 78km
Updated: Thu, 08/21/2014 7:55am EDT
Clear
Clear
 Wind from calm
Wind: Calm
Temperature: 73°F , 23°C
Dew Point: 72°F , 22°C
Humidity: 94%
Barometer: 30.06 inHg , 1017.9 hPa
Clouds: Clear
Visibility: 9 miles , 14 km
2014/08/21 11:55 KCQW 211155Z AUTO 00000KT 9SM CLR 23/22 A3006 RMK AO2